createdAt,value
2018-08-17T00:01:05.065Z,100736.02
2018-08-17T00:03:34.895Z,100731.41
2018-08-17T00:06:04.774Z,100733.69
2018-08-17T00:08:34.158Z,100732.87
2018-08-17T00:11:03.964Z,100728.53
2018-08-17T00:13:33.728Z,100727.11
2018-08-17T00:16:03.601Z,100728.53
2018-08-17T00:18:33.358Z,100726.00
2018-08-17T00:21:03.183Z,100723.52
2018-08-17T00:23:32.818Z,100718.58
2018-08-17T00:26:02.237Z,100711.58
2018-08-17T00:28:32.031Z,100709.64
2018-08-17T00:31:01.822Z,100710.23
2018-08-17T00:33:31.635Z,100707.20
2018-08-17T00:36:01.360Z,100704.44
2018-08-17T00:38:30.783Z,100699.98
2018-08-17T00:41:00.539Z,100705.56
2018-08-17T00:43:30.307Z,100706.22
2018-08-17T00:46:00.007Z,100713.23
2018-08-17T00:48:29.814Z,100703.36
2018-08-17T00:50:59.200Z,100707.01
2018-08-17T00:53:28.983Z,100708.69
2018-08-17T00:55:58.768Z,100710.73
2018-08-17T00:58:28.527Z,100709.13
2018-08-17T01:00:58.315Z,100706.59
2018-08-17T01:03:27.955Z,100708.27
2018-08-17T01:05:57.296Z,100706.14
2018-08-17T01:08:27.272Z,100702.91
2018-08-17T01:10:57.069Z,100705.02
2018-08-17T01:13:26.813Z,100709.13
2018-08-17T01:15:56.587Z,100710.22
2018-08-17T01:18:26.369Z,100707.08
2018-08-17T01:20:56.081Z,100718.67
2018-08-17T01:23:25.881Z,100720.02
2018-08-17T01:25:55.639Z,100712.92
2018-08-17T01:28:25.735Z,100716.22
2018-08-17T01:30:55.561Z,100709.70
2018-08-17T01:33:25.321Z,100716.44
2018-08-17T01:35:55.033Z,100706.58
2018-08-17T01:38:24.832Z,100715.30
2018-08-17T01:40:54.252Z,100700.88
2018-08-17T01:43:24.144Z,100718.06
2018-08-17T01:45:53.848Z,100709.68
2018-08-17T01:48:23.643Z,100711.47
2018-08-17T01:50:53.362Z,100713.42
2018-08-17T01:53:23.127Z,100715.63
2018-08-17T01:55:52.536Z,100711.84
2018-08-17T01:58:22.295Z,100711.66
2018-08-17T02:00:52.056Z,100705.73
2018-08-17T02:03:21.811Z,100706.04
2018-08-17T02:05:51.495Z,100710.89
2018-08-17T02:08:20.891Z,100712.53
2018-08-17T02:10:50.232Z,100709.62
2018-08-17T02:13:19.682Z,100708.98
2018-08-17T02:15:49.397Z,100712.32
2018-08-17T02:18:19.075Z,100708.00
2018-08-17T02:20:48.820Z,100704.13
2018-08-17T02:23:18.455Z,100708.73
2018-08-17T02:25:48.184Z,100702.55
2018-08-17T02:28:17.523Z,100697.80
2018-08-17T02:30:47.217Z,100694.84
2018-08-17T02:33:16.540Z,100694.78
2018-08-17T02:35:45.907Z,100691.41
2018-08-17T02:38:15.335Z,100696.19
2018-08-17T02:40:45.012Z,100691.30
2018-08-17T02:43:14.784Z,100692.80
2018-08-17T02:45:44.623Z,100693.47
2018-08-17T02:48:14.053Z,100692.89
2018-08-17T02:50:43.702Z,100693.11
2018-08-17T02:53:13.127Z,100689.29
2018-08-17T02:55:42.880Z,100693.11
2018-08-17T02:58:12.670Z,100689.55
2018-08-17T03:00:42.470Z,100691.53
2018-08-17T03:03:12.289Z,100690.06
2018-08-17T03:05:41.737Z,100689.13
2018-08-17T03:08:11.231Z,100692.87
2018-08-17T03:10:41.946Z,100690.19
2018-08-17T03:13:12.119Z,100693.86
2018-08-17T03:15:41.550Z,100691.06
2018-08-17T03:18:10.979Z,100697.69
2018-08-17T03:20:40.807Z,100694.14
2018-08-17T03:23:10.570Z,100702.29
2018-08-17T03:25:40.382Z,100698.22
2018-08-17T03:28:10.300Z,100698.30
2018-08-17T03:30:40.170Z,100694.42
2018-08-17T03:33:10.351Z,100698.59
2018-08-17T03:35:40.119Z,100696.70
2018-08-17T03:38:09.999Z,100691.52
2018-08-17T03:40:39.323Z,100692.98
2018-08-17T03:43:09.216Z,100688.44
2018-08-17T03:45:38.993Z,100694.52
2018-08-17T03:48:09.196Z,100692.42
2018-08-17T03:50:38.635Z,100691.26
2018-08-17T03:53:08.499Z,100690.82
2018-08-17T03:55:38.327Z,100690.09
2018-08-17T03:58:07.871Z,100691.59
2018-08-17T04:00:37.767Z,100691.19
2018-08-17T04:03:07.515Z,100689.02
2018-08-17T04:05:36.950Z,100692.16
2018-08-17T04:08:06.758Z,100694.97
2018-08-17T04:10:36.499Z,100697.11
2018-08-17T04:13:06.581Z,100697.05
2018-08-17T04:15:36.439Z,100701.13
2018-08-17T04:18:06.501Z,100699.65
2018-08-17T04:20:36.235Z,100701.86
2018-08-17T04:23:06.145Z,100694.20
2018-08-17T04:25:35.927Z,100696.27
2018-08-17T04:28:05.431Z,100700.78
2018-08-17T04:30:35.783Z,100695.52
2018-08-17T04:33:05.577Z,100693.58
2018-08-17T04:35:35.421Z,100701.54
2018-08-17T04:38:04.818Z,100697.52
2018-08-17T04:40:34.192Z,100703.37
2018-08-17T04:43:03.646Z,100700.45
2018-08-17T04:45:33.550Z,100705.33
2018-08-17T04:48:03.582Z,100711.48
2018-08-17T04:50:33.334Z,100704.48
2018-08-17T04:53:02.779Z,100706.55
2018-08-17T04:55:32.162Z,100707.17
2018-08-17T04:58:01.918Z,100711.78
2018-08-17T05:00:31.649Z,100708.85
2018-08-17T05:03:01.461Z,100716.83
2018-08-17T05:05:32.017Z,100707.67
2018-08-17T05:08:01.379Z,100714.19
2018-08-17T05:10:31.157Z,100713.39
2018-08-17T05:13:00.999Z,100715.67
2018-08-17T05:15:30.848Z,100713.17
2018-08-17T05:18:00.708Z,100702.98
2018-08-17T05:20:30.136Z,100706.97
2018-08-17T05:22:59.941Z,100704.00
2018-08-17T05:25:29.419Z,100701.62
2018-08-17T05:27:59.174Z,100706.25
2018-08-17T05:30:28.997Z,100699.94
2018-08-17T05:32:58.936Z,100701.33
2018-08-17T05:35:28.620Z,100701.48
2018-08-17T05:37:58.439Z,100706.81
2018-08-17T05:40:27.916Z,100702.27
2018-08-17T05:42:57.765Z,100707.67
2018-08-17T05:45:27.179Z,100704.55
2018-08-17T05:47:58.035Z,100704.00
2018-08-17T05:50:30.919Z,100708.48
2018-08-17T05:53:01.367Z,100705.83
2018-08-17T05:55:31.578Z,100705.97
2018-08-17T05:58:01.314Z,100707.81
2018-08-17T06:00:30.810Z,100710.08
2018-08-17T06:03:00.767Z,100711.36
2018-08-17T06:05:30.541Z,100707.91
2018-08-17T06:08:01.459Z,100712.08
2018-08-17T06:10:31.410Z,100711.72
2018-08-17T06:13:02.137Z,100714.23
2018-08-17T06:15:32.020Z,100712.11
2018-08-17T06:18:01.824Z,100705.92
2018-08-17T06:20:31.674Z,100709.27
2018-08-17T06:23:02.239Z,100709.39
2018-08-17T06:25:32.190Z,100707.57
2018-08-17T06:28:01.998Z,100711.13
2018-08-17T06:30:44.723Z,100710.11
2018-08-17T06:33:15.926Z,100709.16
2018-08-17T06:35:45.474Z,100700.59
2018-08-17T06:38:15.282Z,100710.20
2018-08-17T06:40:45.166Z,100705.37
2018-08-17T06:43:15.079Z,100693.81
2018-08-17T06:45:44.615Z,100698.22
2018-08-17T06:48:14.427Z,100705.32
2018-08-17T06:50:44.362Z,100703.11
2018-08-17T06:53:13.788Z,100708.38
2018-08-17T06:55:43.213Z,100704.22
2018-08-17T06:58:12.697Z,100702.35
2018-08-17T07:00:42.109Z,100708.48
2018-08-17T07:03:14.097Z,100702.95
2018-08-17T07:05:43.464Z,100712.05
2018-08-17T07:08:13.521Z,100706.42
2018-08-17T07:10:42.957Z,100700.33
2018-08-17T07:13:12.382Z,100707.66
2018-08-17T07:15:42.273Z,100709.91
2018-08-17T07:18:12.053Z,100707.42
2018-08-17T07:20:41.857Z,100713.05
2018-08-17T07:23:11.282Z,100712.06
2018-08-17T07:25:41.177Z,100707.25
2018-08-17T07:28:11.052Z,100704.89
2018-08-17T07:30:40.918Z,100706.55
2018-08-17T07:33:11.117Z,100711.19
2018-08-17T07:35:40.772Z,100710.03
2018-08-17T07:38:10.252Z,100714.14
2018-08-17T07:40:39.760Z,100710.16
2018-08-17T07:43:09.670Z,100707.91
2018-08-17T07:45:39.808Z,100710.94
2018-08-17T07:48:10.145Z,100712.11
2018-08-17T07:50:40.338Z,100711.63
2018-08-17T07:53:10.278Z,100708.88
2018-08-17T07:55:39.802Z,100712.23
2018-08-17T07:58:10.052Z,100716.72
2018-08-17T08:00:39.645Z,100687.89
2018-08-17T08:03:09.629Z,100712.47
2018-08-17T08:05:39.193Z,100711.89
2018-08-17T08:08:09.078Z,100708.46
2018-08-17T08:10:41.827Z,100706.00
2018-08-17T08:13:11.814Z,100712.39
2018-08-17T08:15:41.736Z,100703.80
2018-08-17T08:18:12.178Z,100704.76
2018-08-17T08:20:44.925Z,100707.48
2018-08-17T08:23:25.809Z,100709.38
2018-08-17T08:25:56.494Z,100716.75
2018-08-17T08:28:26.517Z,100718.70
2018-08-17T08:30:56.688Z,100716.59
2018-08-17T08:33:27.830Z,100720.15
2018-08-17T08:35:57.647Z,100720.05
2018-08-17T08:38:27.238Z,100719.89
2018-08-17T08:40:57.017Z,100717.77
2018-08-17T08:43:26.901Z,100716.52
2018-08-17T08:45:57.216Z,100718.62
2018-08-17T08:48:27.212Z,100721.70
2018-08-17T08:50:56.961Z,100709.70
2018-08-17T08:53:26.743Z,100714.64
2018-08-17T08:55:56.556Z,100713.86
2018-08-17T08:58:25.966Z,100713.62
2018-08-17T09:00:55.417Z,100711.73
2018-08-17T09:03:25.261Z,100710.20
2018-08-17T09:05:55.753Z,100712.55
2018-08-17T09:08:25.585Z,100701.77
2018-08-17T09:10:55.560Z,100698.88
2018-08-17T09:13:25.520Z,100702.94
2018-08-17T09:15:55.209Z,100698.98
2018-08-17T09:18:25.004Z,100696.58
2018-08-17T09:20:55.973Z,100694.30
2018-08-17T09:23:25.768Z,100697.82
2018-08-17T09:25:56.496Z,100696.34
2018-08-17T09:28:26.353Z,100691.84
2018-08-17T09:30:56.313Z,100688.23
2018-08-17T09:33:25.728Z,100678.11
2018-08-17T09:35:56.211Z,100684.52
2018-08-17T09:38:26.691Z,100679.20
2018-08-17T09:40:58.428Z,100681.30
2018-08-17T09:43:28.249Z,100673.21
2018-08-17T09:45:58.096Z,100671.86
2018-08-17T09:48:27.854Z,100672.91
2018-08-17T09:50:57.665Z,100670.86
2018-08-17T09:53:27.530Z,100665.13
2018-08-17T09:55:57.396Z,100664.26
2018-08-17T09:58:27.869Z,100669.16
2018-08-17T10:01:02.720Z,100659.38
2018-08-17T10:03:37.806Z,100662.14
2018-08-17T10:06:12.739Z,100662.05
2018-08-17T10:08:47.760Z,100655.06
2018-08-17T10:11:18.399Z,100659.49
2018-08-17T10:13:48.116Z,100659.87
2018-08-17T10:16:17.609Z,100660.00
2018-08-17T10:18:47.356Z,100661.27
2018-08-17T10:21:17.060Z,100658.42
2018-08-17T10:23:46.208Z,100655.97
2018-08-17T10:26:15.601Z,100662.14
2018-08-17T10:28:46.017Z,100655.20
2018-08-17T10:31:18.597Z,100655.48
2018-08-17T10:33:49.658Z,100656.84
2018-08-17T10:36:20.027Z,100654.25
2018-08-17T10:38:49.620Z,100647.81
2018-08-17T10:41:19.356Z,100646.59
2018-08-17T10:43:49.825Z,100639.41
2018-08-17T10:46:19.570Z,100636.74
2018-08-17T10:48:49.040Z,100643.11
2018-08-17T10:51:18.413Z,100634.03
2018-08-17T10:53:48.200Z,100636.46
2018-08-17T10:56:17.930Z,100631.38
2018-08-17T10:58:47.796Z,100637.92
2018-08-17T11:01:17.544Z,100630.99
2018-08-17T11:03:47.262Z,100630.58
2018-08-17T11:06:17.720Z,100634.23
2018-08-17T11:08:47.871Z,100627.67
2018-08-17T11:11:20.236Z,100627.78
2018-08-17T11:13:50.757Z,100622.00
2018-08-17T11:16:27.965Z,100619.17
2018-08-17T11:18:59.062Z,100612.92
2018-08-17T11:21:29.560Z,100616.66
2018-08-17T11:24:00.460Z,100618.96
2018-08-17T11:26:30.811Z,100618.81
2018-08-17T11:29:00.993Z,100615.41
2018-08-17T11:31:30.820Z,100616.87
2018-08-17T11:34:00.831Z,100619.38
2018-08-17T11:36:32.312Z,100612.81
2018-08-17T11:39:02.234Z,100613.42
2018-08-17T11:41:32.309Z,100609.15
2018-08-17T11:44:06.289Z,100605.29
2018-08-17T11:46:38.329Z,100610.69
2018-08-17T11:49:10.294Z,100608.29
2018-08-17T11:51:43.717Z,100606.03
2018-08-17T11:54:13.316Z,100598.41
2018-08-17T11:56:42.802Z,100602.92
2018-08-17T11:59:12.893Z,100597.85
2018-08-17T12:01:44.894Z,100594.33
2018-08-17T12:04:18.883Z,100592.58
2018-08-17T12:06:48.237Z,100590.09
2018-08-17T12:09:21.868Z,100596.28
2018-08-17T12:11:52.745Z,100593.61
2018-08-17T12:14:23.521Z,100594.61
2018-08-17T12:16:53.954Z,100589.59
2018-08-17T12:19:23.904Z,100587.35
2018-08-17T12:21:54.028Z,100586.15
2018-08-17T12:24:24.070Z,100587.76
2018-08-17T12:26:56.039Z,100586.39
2018-08-17T12:29:26.126Z,100583.72
2018-08-17T12:31:55.548Z,100585.25
2018-08-17T12:34:25.476Z,100586.91
2018-08-17T12:36:54.932Z,100587.11
2018-08-17T12:39:24.744Z,100583.42
2018-08-17T12:41:54.120Z,100580.47
2018-08-17T12:44:23.579Z,100577.37
2018-08-17T12:46:52.986Z,100584.11
2018-08-17T12:49:23.292Z,100576.30
2018-08-17T12:51:56.975Z,100576.53
2018-08-17T12:54:31.799Z,100574.17
2018-08-17T12:57:03.787Z,100574.87
2018-08-17T12:59:35.323Z,100577.77
2018-08-17T13:02:04.834Z,100573.69
2018-08-17T13:04:35.045Z,100570.98
2018-08-17T13:07:04.844Z,100572.00
2018-08-17T13:09:41.182Z,100572.51
2018-08-17T13:12:10.613Z,100564.66
2018-08-17T13:14:40.935Z,100565.15
2018-08-17T13:17:10.484Z,100566.86
2018-08-17T13:19:42.935Z,100563.10
2018-08-17T13:22:12.387Z,100560.20
2018-08-17T13:24:42.944Z,100557.45
2018-08-17T13:27:12.829Z,100555.19
2018-08-17T13:29:42.682Z,100554.32
2018-08-17T13:32:12.095Z,100551.08
2018-08-17T13:34:41.855Z,100541.41
2018-08-17T13:37:11.576Z,100544.23
2018-08-17T13:39:41.374Z,100539.57
2018-08-17T13:42:20.385Z,100550.13
2018-08-17T13:44:50.007Z,100544.70
2018-08-17T13:47:21.270Z,100542.98
2018-08-17T13:49:50.983Z,100547.00
2018-08-17T13:52:20.586Z,100541.50
2018-08-17T13:54:50.385Z,100540.70
2018-08-17T13:57:20.252Z,100540.37
2018-08-17T13:59:50.112Z,100534.66
2018-08-17T14:02:20.069Z,100537.59
2018-08-17T14:04:49.877Z,100539.14
2018-08-17T14:07:19.842Z,100535.52
2018-08-17T14:09:49.748Z,100538.05
2018-08-17T14:12:19.924Z,100533.84
2018-08-17T14:14:49.992Z,100533.11
2018-08-17T14:17:19.779Z,100530.18
2018-08-17T14:19:49.683Z,100528.11
2018-08-17T14:22:19.621Z,100521.13
2018-08-17T14:24:49.518Z,100520.03
2018-08-17T14:27:19.323Z,100518.42
2018-08-17T14:29:49.166Z,100514.80
2018-08-17T14:32:19.145Z,100525.28
2018-08-17T14:34:48.649Z,100520.50
2018-08-17T14:37:18.504Z,100519.85
2018-08-17T14:39:47.954Z,100520.71
2018-08-17T14:42:17.846Z,100519.67
2018-08-17T14:44:48.507Z,100528.20
2018-08-17T14:47:18.364Z,100523.03
2018-08-17T14:49:47.854Z,100521.77
2018-08-17T14:52:17.671Z,100523.10
2018-08-17T14:54:47.549Z,100517.25
2018-08-17T14:57:17.431Z,100524.44
2018-08-17T14:59:46.969Z,100515.54
2018-08-17T15:02:16.853Z,100513.34
2018-08-17T15:04:46.669Z,100518.56
2018-08-17T15:07:16.298Z,100517.05
2018-08-17T15:09:48.261Z,100517.42
2018-08-17T15:12:17.994Z,100511.13
2018-08-17T15:14:47.388Z,100510.95
2018-08-17T15:17:17.357Z,100511.19
2018-08-17T15:19:47.686Z,100503.54
2018-08-17T15:22:17.621Z,100519.80
2018-08-17T15:24:47.425Z,100518.05
2018-08-17T15:27:17.753Z,100518.70
2018-08-17T15:29:47.457Z,100514.00
2018-08-17T15:32:17.584Z,100516.41
2018-08-17T15:34:47.401Z,100513.52
2018-08-17T15:37:17.375Z,100520.03
2018-08-17T15:39:47.062Z,100515.64
2018-08-17T15:42:16.593Z,100508.93
2018-08-17T15:44:46.169Z,100509.61
2018-08-17T15:47:15.724Z,100509.52
2018-08-17T15:50:07.481Z,100507.81
2018-08-17T15:52:37.232Z,100508.84
2018-08-17T15:55:06.745Z,100509.86
2018-08-17T15:57:36.438Z,100511.76
2018-08-17T16:00:07.891Z,100513.10
2018-08-17T16:02:37.711Z,100510.53
2018-08-17T16:05:08.234Z,100509.00
2018-08-17T16:07:37.753Z,100511.40
2018-08-17T16:10:09.108Z,100503.16
2018-08-17T16:12:39.269Z,100501.05
2018-08-17T16:15:10.980Z,100502.69
2018-08-17T16:17:40.498Z,100496.50
2018-08-17T16:20:11.795Z,100502.73
2018-08-17T16:22:42.325Z,100499.93
2018-08-17T16:25:12.708Z,100501.80
2018-08-17T16:27:43.006Z,100499.30
2018-08-17T16:30:15.239Z,100491.34
2018-08-17T16:32:45.013Z,100499.33
2018-08-17T16:35:14.867Z,100494.92
2018-08-17T16:37:47.991Z,100493.70
2018-08-17T16:40:18.997Z,100495.59
2018-08-17T16:42:52.205Z,100500.47
2018-08-17T16:45:22.247Z,100502.22
2018-08-17T16:47:51.656Z,100500.25
2018-08-17T16:50:21.165Z,100505.91
2018-08-17T16:52:51.125Z,100500.63
2018-08-17T16:55:21.111Z,100496.72
2018-08-17T16:57:50.543Z,100501.39
2018-08-17T17:00:20.025Z,100498.28
2018-08-17T17:02:49.470Z,100503.55
2018-08-17T17:05:18.907Z,100499.54
2018-08-17T17:07:48.377Z,100477.25
2018-08-17T17:10:17.845Z,100503.45
2018-08-17T17:12:47.601Z,100502.34
2018-08-17T17:15:20.418Z,100501.02
2018-08-17T17:18:10.878Z,100499.30
2018-08-17T17:20:40.870Z,100500.27
2018-08-17T17:23:12.244Z,100510.03
2018-08-17T17:25:41.895Z,100504.84
2018-08-17T17:28:11.831Z,100500.55
2018-08-17T17:30:58.033Z,100508.30
2018-08-17T17:33:27.843Z,100514.95
2018-08-17T17:35:57.690Z,100511.14
2018-08-17T17:38:28.288Z,100513.14
2018-08-17T17:40:58.807Z,100513.92
2018-08-17T17:43:28.625Z,100513.11
2018-08-17T17:45:58.561Z,100517.92
2018-08-17T17:48:28.120Z,100523.88
2018-08-17T17:50:57.746Z,100522.31
2018-08-17T17:53:27.821Z,100523.08
2018-08-17T17:56:00.832Z,100527.64
2018-08-17T17:58:31.303Z,100534.02
2018-08-17T18:01:06.238Z,100532.00
2018-08-17T18:03:36.110Z,100532.94
2018-08-17T18:06:07.196Z,100532.34
2018-08-17T18:08:37.055Z,100540.88
2018-08-17T18:11:06.599Z,100542.84
2018-08-17T18:13:36.401Z,100552.70
2018-08-17T18:16:06.024Z,100560.50
2018-08-17T18:18:35.896Z,100560.86
2018-08-17T18:21:05.522Z,100559.12
2018-08-17T18:23:35.055Z,100562.97
2018-08-17T18:26:09.348Z,100563.53
2018-08-17T18:28:38.912Z,100565.30
2018-08-17T18:31:08.796Z,100565.22
2018-08-17T18:33:38.712Z,100579.85
2018-08-17T18:36:08.222Z,100579.95
2018-08-17T18:38:41.212Z,100584.66
2018-08-17T18:41:11.244Z,100592.31
2018-08-17T18:43:42.268Z,100588.06
2018-08-17T18:46:15.429Z,100592.56
2018-08-17T18:48:47.038Z,100584.31
2018-08-17T18:51:27.425Z,100594.17
2018-08-17T18:53:56.903Z,100595.88
2018-08-17T18:56:26.438Z,100601.14
2018-08-17T18:58:55.932Z,100601.45
2018-08-17T19:01:27.940Z,100601.61
2018-08-17T19:03:58.024Z,100607.48
2018-08-17T19:06:28.195Z,100613.98
2018-08-17T19:08:58.024Z,100620.28
2018-08-17T19:11:27.778Z,100621.59
2018-08-17T19:13:57.890Z,100628.69
2018-08-17T19:16:27.729Z,100629.20
2018-08-17T19:18:58.550Z,100633.06
2018-08-17T19:21:28.565Z,100633.31
2018-08-17T19:24:02.402Z,100640.02
2018-08-17T19:26:32.584Z,100644.42
2018-08-17T19:29:02.418Z,100649.72
2018-08-17T19:31:32.424Z,100656.50
2018-08-17T19:34:10.453Z,100656.38
2018-08-17T19:36:46.675Z,100662.82
2018-08-17T19:39:24.910Z,100668.70
2018-08-17T19:42:04.616Z,100670.06
2018-08-17T19:44:47.608Z,100675.11
2018-08-17T19:47:18.761Z,100672.03
2018-08-17T19:49:49.025Z,100679.80
2018-08-17T19:52:20.222Z,100671.81
2018-08-17T19:54:50.983Z,100677.83
2018-08-17T19:57:20.715Z,100675.54
2018-08-17T19:59:51.100Z,100671.66
2018-08-17T20:02:22.360Z,100673.88
2018-08-17T20:04:53.380Z,100674.41
2018-08-17T20:07:23.405Z,100674.90
2018-08-17T20:09:53.492Z,100682.88
2018-08-17T20:12:23.848Z,100689.55
2018-08-17T20:14:53.499Z,100698.14
2018-08-17T20:17:22.976Z,100700.89
2018-08-17T20:19:52.405Z,100695.09
2018-08-17T20:22:23.755Z,100702.51
2018-08-17T20:24:53.276Z,100706.75
2018-08-17T20:27:23.301Z,100714.98
2018-08-17T20:29:52.780Z,100708.34
2018-08-17T20:32:22.897Z,100723.63
2018-08-17T20:34:53.400Z,100726.23
2018-08-17T20:37:24.148Z,100725.87
2018-08-17T20:39:54.521Z,100727.69
2018-08-17T20:42:25.102Z,100731.38
2018-08-17T20:44:55.237Z,100732.85
2018-08-17T20:47:25.465Z,100733.93
2018-08-17T20:49:55.585Z,100735.25
2018-08-17T20:52:25.500Z,100750.56
2018-08-17T20:54:55.436Z,100743.00
2018-08-17T20:57:25.331Z,100755.56
2018-08-17T20:59:55.217Z,100756.41
2018-08-17T21:02:25.031Z,100759.70
2018-08-17T21:04:55.475Z,100762.01
2018-08-17T21:07:25.157Z,100753.92
2018-08-17T21:09:55.172Z,100761.85
2018-08-17T21:12:25.112Z,100771.45
2018-08-17T21:14:54.726Z,100779.98
2018-08-17T21:17:26.273Z,100788.94
2018-08-17T21:19:55.800Z,100797.42
2018-08-17T21:22:26.161Z,100807.63
2018-08-17T21:24:56.791Z,100817.15
2018-08-17T21:27:26.891Z,100811.33
2018-08-17T21:29:57.543Z,100810.70
2018-08-17T21:32:28.330Z,100807.80
2018-08-17T21:34:57.871Z,100805.64
2018-08-17T21:37:28.421Z,100805.27
2018-08-17T21:40:02.172Z,100810.44
2018-08-17T21:42:32.399Z,100812.73
2018-08-17T21:45:02.770Z,100810.33
2018-08-17T21:47:34.006Z,100814.58
2018-08-17T21:50:14.059Z,100825.32
2018-08-17T21:52:45.080Z,100831.23
2018-08-17T21:55:15.734Z,100833.64
2018-08-17T21:57:53.192Z,100839.55
2018-08-17T22:00:29.815Z,100839.75
2018-08-17T22:03:00.111Z,100840.84
2018-08-17T22:05:33.326Z,100843.79
2018-08-17T22:08:05.087Z,100849.64
2018-08-17T22:10:36.227Z,100846.34
2018-08-17T22:13:11.968Z,100856.76
2018-08-17T22:15:42.014Z,100853.51
2018-08-17T22:18:11.558Z,100867.95
2018-08-17T22:20:42.118Z,100865.36
2018-08-17T22:23:12.188Z,100877.40
2018-08-17T22:25:44.485Z,100884.72
2018-08-17T22:28:14.308Z,100882.20
2018-08-17T22:30:45.506Z,100889.80
2018-08-17T22:33:15.370Z,100895.10
2018-08-17T22:35:46.124Z,100897.41
2018-08-17T22:38:15.695Z,100902.80
2018-08-17T22:40:46.219Z,100907.13
2018-08-17T22:43:15.630Z,100905.56
2018-08-17T22:45:45.231Z,100911.55
2018-08-17T22:48:15.101Z,100924.94
2018-08-17T22:50:45.682Z,100921.64
2018-08-17T22:53:16.509Z,100916.47
2018-08-17T22:55:47.326Z,100917.39
2018-08-17T22:58:17.694Z,100915.87
2018-08-17T23:00:48.685Z,100911.70
2018-08-17T23:03:18.121Z,100914.87
2018-08-17T23:05:47.793Z,100905.74
2018-08-17T23:08:20.735Z,100912.09
2018-08-17T23:10:51.154Z,100923.95
2018-08-17T23:13:21.394Z,100939.12
2018-08-17T23:15:53.712Z,100957.70
2018-08-17T23:18:28.118Z,100965.66
2018-08-17T23:20:58.774Z,100985.05
2018-08-17T23:23:29.507Z,101001.48
2018-08-17T23:25:59.498Z,101034.17
2018-08-17T23:28:28.906Z,101052.66
2018-08-17T23:30:59.907Z,101068.56
2018-08-17T23:33:31.406Z,101079.75
2018-08-17T23:36:01.326Z,101073.08
2018-08-17T23:38:32.674Z,101089.88
2018-08-17T23:41:02.767Z,101095.22
2018-08-17T23:43:33.496Z,101091.48
2018-08-17T23:46:04.943Z,101091.27
2018-08-17T23:48:34.536Z,101088.57
2018-08-17T23:51:06.110Z,101101.65
2018-08-17T23:53:36.325Z,101108.98
2018-08-17T23:56:06.226Z,101116.61
2018-08-17T23:58:38.957Z,101117.92
